Middletown, NY (10941)

8:15 PM EDT en Agosto 30, 2014 (GMT -0400)
T/Wallkill / Middletown, NY | Change Station
CLOSE
Current Station
Estación meteorológica personal
Location: Middletown, NY
Altura: 548 ft
Estaciones meteorológicas cercanas

Alt 548 ft 41.44 °N, 74.40 °W | Updated 51 seconds ago

Nublado
Nublado
72.5 ° F
Sensación térmica 74 ° F
N
0.0
Viento Variable Viento desde NE
Gusts 1.0 mph

Hoy
Alta -- | Baja -- ° F
--% Posibilidad de precipitaciones
Ayer
Alta -- | Baja -- ° F
Precip. -- pul
6:21 AM 7:33 PM
Creciente, 26% visible
Presión 30.13 pul
Visibilidad 10.0 Millas
Nubes Muy nublado 3400 ft
Nublado 4400 ft
Índice de calor 74 ° F
Punto de rocío 64 ° F
Humedad 75%
Precipitaciones 0.00 pul
Espesor de la nieve No disponible.
UV 0 de una escala de 12
Polen 8.90 de una escala de 12
PM2.5 Buena
Flu Activity No disponible.
METAR KMGJ 302354Z AUTO 20006KT 10SM BKN034 OVC044 23/16 A3013 RMK AO2 SLP203 T02280161 10261 20228 58007 TSNO $

More Conditions Fewer Conditions

Presión 30.13 pul
Visibilidad 10.0 Millas
Nubes Muy nublado 3400 ft
Nublado 4400 ft
Índice de calor 74 ° F
Punto de rocío 64 ° F
Humedad 75%
Precipitaciones 0.00 pul
Espesor de la nieve No disponible.
UV 0 de una escala de 12
Polen 8.90 de una escala de 12
PM2.5 Buena
Flu Activity No disponible.
METAR KMGJ 302354Z AUTO 20006KT 10SM BKN034 OVC044 23/16 A3013 RMK AO2 SLP203 T02280161 10261 20228 58007 TSNO $

More Conditions Fewer Conditions

10-Day Weather Forecast

Almanac

Astronomía

Aug. 30, 2014 Salida Puesta
Hora real 6:21 AM EDT 7:33 PM EDT
Crepúsculo civil 5:53 AM EDT 8:02 PM EDT
Crepúsculo náutico 5:19 AM EDT 8:36 PM EDT
Crepúsculo astronómico 4:43 AM EDT 9:12 PM EDT
Luna 11:10 AM EDT (8/30) 10:02 PM EDT (8/30)
Horas de luz 14h 09m
Horas de luz
13h 12m
Tomorrow will be 2m 38s shorter.
Creciente, 26% of the Moon is Illuminated
Hoy
Creciente
Sep 2
Cuarto creciente
Sep 8
Luna llena
Sep 15
Cuarto menguante
Sep 24
Nueva

Extremos de hoy

Máximos del estado Bajos del estado

Community

WunderPhotos

Upload Photos

1,748,696 ¡fotos cargadas!

Nearby

Calidad del aire

  Calidad del aire Índice AQ Contaminante
Ayer Buena
OZONE
Ayer Buena
PM2.5
Real Buena
PM2.5
Sábado Buena
OZONE
Sábado Buena
PM2.5
Domingo Moderada
PM2.5
Domingo Buena
OZONE
Lunes Moderada
OZONE
Lunes Moderada
PM2.5
Martes Moderada
OZONE
Martes Moderada
PM2.5

Grosos de nieve

Estación Profundido Altura
No tenemos constancia de nieve nueva.

Actividad de terremotos

Ciudad Distance Mag. Tiempo y dato
No hay informes recientes de la actividad sísmica.
Magnitud mínima muestra es 2,5.

Temperaturas de aguas costeras

Lugar Temperatura
Sin partes meteorológicos de las estaciones

Estaciones meteorológicas cercanas